Time;durP1;ratioP1;P1;durP2;ratioP2;P2;SDS_P1;SDS_P2;PMS_P1;PMS_P2;Temp;Humidity;BMP_temperature;BMP_pressure;BME280_temperature;BME280_humidity;BME280_pressure;Samples;Min_cycle;Max_cycle;Signal;HPM_P1;HPM_P2
2022/01/20 00:00:01;;;;;;;34.17;5.78;;;;;;;1.10;100.00;102328.63;5250273;28;20470;-72
2022/01/20 00:02:36;;;;;;;32.58;5.35;;;;;;;1.05;100.00;102339.19;5251601;28;20037;-72
2022/01/20 00:05:28;;;;;;;39.58;5.38;;;;;;;1.03;100.00;102337.47;5254268;28;20061;-72
2022/01/20 00:27:40;;;;;;;32.97;4.90;;;;;;;0.82;100.00;102343.88;5251315;28;20060;-72
2022/01/20 00:35:26;;;;;;;36.03;5.55;;;;;;;0.87;100.00;102332.41;5245448;28;20040;-72
2022/01/20 00:37:58;;;;;;;38.13;5.60;;;;;;;0.77;100.00;102347.41;5244287;28;20037;-72
2022/01/20 00:40:29;;;;;;;33.05;5.75;;;;;;;0.80;100.00;102346.50;5251522;28;20037;-72
2022/01/20 00:43:01;;;;;;;29.10;5.18;;;;;;;0.84;100.00;102353.47;5248214;28;20107;-72
2022/01/20 00:45:32;;;;;;;33.67;5.00;;;;;;;0.85;100.00;102354.34;5247564;28;20111;-72
2022/01/20 00:48:04;;;;;;;42.65;6.15;;;;;;;0.81;100.00;102345.63;5254087;28;20029;-72
2022/01/20 00:50:35;;;;;;;32.33;5.68;;;;;;;0.80;100.00;102333.38;5252272;28;20040;-72
2022/01/20 00:53:07;;;;;;;37.67;5.18;;;;;;;0.90;100.00;102336.75;5255386;28;20029;-72
2022/01/20 00:55:39;;;;;;;36.35;5.68;;;;;;;0.87;100.00;102337.66;5244365;28;20041;-72
2022/01/20 00:58:10;;;;;;;32.53;4.93;;;;;;;0.95;100.00;102335.81;5248066;28;20146;-72
2022/01/20 01:00:41;;;;;;;31.95;5.72;;;;;;;1.03;100.00;102340.09;5250012;28;20128;-72
2022/01/20 01:03:13;;;;;;;33.33;6.47;;;;;;;1.07;100.00;102353.19;5251709;28;20028;-72
2022/01/20 01:06:08;;;;;;;29.33;5.57;;;;;;;1.18;100.00;102368.81;5246527;28;20044;-72
2022/01/20 01:08:35;;;;;;;38.75;5.82;;;;;;;1.29;100.00;102355.56;5249376;28;20036;-72
2022/01/20 01:11:07;;;;;;;35.55;5.15;;;;;;;1.37;100.00;102356.31;5251433;28;20064;-72
2022/01/20 01:13:38;;;;;;;24.85;4.53;;;;;;;1.48;100.00;102361.44;5252295;28;20051;-73
2022/01/20 01:16:11;;;;;;;36.92;4.70;;;;;;;1.46;100.00;102363.19;5249666;28;20056;-72
2022/01/20 01:21:44;;;;;;;31.13;4.35;;;;;;;1.50;100.00;102370.16;5252445;28;20061;-72
2022/01/20 01:24:16;;;;;;;28.02;4.75;;;;;;;1.51;100.00;102364.84;5251233;28;20032;-72
2022/01/20 01:26:47;;;;;;;31.15;4.25;;;;;;;1.53;100.00;102362.22;5250616;28;20036;-72
2022/01/20 01:32:11;;;;;;;26.55;4.47;;;;;;;1.53;100.00;102362.22;5252047;28;20554;-72
2022/01/20 01:34:48;;;;;;;25.70;3.75;;;;;;;1.48;100.00;102371.94;5250968;28;20032;-72
2022/01/20 01:40:07;;;;;;;31.40;5.10;;;;;;;1.49;100.00;102364.00;5249863;28;20036;-72
2022/01/20 01:42:49;;;;;;;28.15;4.18;;;;;;;1.51;100.00;102364.00;5250306;28;20056;-72
2022/01/20 01:45:36;;;;;;;23.20;4.45;;;;;;;1.49;100.00;102368.41;5251109;28;20044;-73
2022/01/20 01:48:07;;;;;;;27.08;3.90;;;;;;;1.50;100.00;102368.41;5251736;28;20052;-72
2022/01/20 01:50:39;;;;;;;26.80;4.20;;;;;;;1.48;100.00;102366.69;5254720;28;20594;-72
2022/01/20 01:53:10;;;;;;;32.30;5.05;;;;;;;1.49;100.00;102373.69;5252337;28;20052;-72
2022/01/20 01:55:42;;;;;;;26.23;3.95;;;;;;;1.45;100.00;102362.31;5252473;28;20174;-72
2022/01/20 01:58:13;;;;;;;25.10;4.43;;;;;;;1.50;100.00;102370.16;5255187;28;20034;-72
2022/01/20 02:00:44;;;;;;;27.98;3.80;;;;;;;1.52;100.00;102378.91;5250434;28;20033;-72
2022/01/20 02:03:16;;;;;;;24.17;4.13;;;;;;;1.54;100.00;102374.50;5253758;28;20080;-72
2022/01/20 02:06:51;;;;;;;29.42;5.10;;;;;;;1.50;100.00;102365.78;5251746;28;20033;-72
2022/01/20 02:09:19;;;;;;;25.10;3.92;;;;;;;1.53;100.00;102365.75;5249532;28;20343;-72
2022/01/20 02:20:20;;;;;;;25.80;4.22;;;;;;;1.69;100.00;102371.63;5252218;28;20080;-73
2022/01/20 02:22:51;;;;;;;19.10;3.30;;;;;;;1.87;100.00;102378.38;5252983;28;20499;-72
2022/01/20 02:25:26;;;;;;;20.58;2.88;;;;;;;1.97;100.00;102392.25;5254421;28;20411;-72
2022/01/20 02:27:59;;;;;;;;;;;;;;;1.98;100.00;102388.75;5257724;28;20044;-72
2022/01/20 02:30:30;;;;;;;27.88;3.90;;;;;;;2.06;100.00;102386.84;5251695;28;19999;-73
2022/01/20 02:33:04;;;;;;;20.02;3.17;;;;;;;2.07;100.00;102374.53;5250037;28;20093;-73
2022/01/20 02:35:44;;;;;;;22.20;3.53;;;;;;;2.06;100.00;102372.81;5256060;28;20032;-73
2022/01/20 02:46:10;;;;;;;19.35;2.83;;;;;;;2.08;100.00;102364.00;5248921;28;20041;-73
2022/01/20 02:48:41;;;;;;;22.85;3.63;;;;;;;2.13;100.00;102361.31;5245975;28;20052;-73
2022/01/20 02:51:13;;;;;;;13.68;2.72;;;;;;;2.11;100.00;102371.84;5248875;28;20037;-73
2022/01/20 02:53:44;;;;;;;19.45;2.65;;;;;;;2.13;100.00;102370.06;5252287;28;20151;-73
2022/01/20 02:56:15;;;;;;;14.70;2.53;;;;;;;2.13;100.00;102367.44;5250856;28;20624;-73
2022/01/20 02:58:47;;;;;;;20.70;2.33;;;;;;;2.08;100.00;102361.38;5248799;28;20036;-73
2022/01/20 03:01:18;;;;;;;19.05;3.30;;;;;;;2.01;100.00;102358.84;5247830;28;20124;-73
2022/01/20 03:03:49;;;;;;;15.75;2.78;;;;;;;2.02;100.00;102353.56;5249191;28;20572;-73
2022/01/20 03:06:21;;;;;;;18.33;2.90;;;;;;;1.93;100.00;102353.72;5251361;28;20111;-73
2022/01/20 03:08:52;;;;;;;19.23;3.28;;;;;;;1.87;100.00;102338.03;5251980;28;20100;-73
2022/01/20 03:11:23;;;;;;;17.38;3.47;;;;;;;1.93;100.00;102341.41;5252537;28;20052;-73
2022/01/20 03:13:55;;;;;;;17.05;3.00;;;;;;;1.87;100.00;102344.16;5252839;28;20081;-73
2022/01/20 03:16:26;;;;;;;23.48;3.30;;;;;;;1.83;100.00;102360.03;5246438;28;20025;-73
2022/01/20 03:18:57;;;;;;;20.92;4.28;;;;;;;1.68;100.00;102359.34;5245782;28;20388;-73
2022/01/20 03:21:28;;;;;;;21.40;3.28;;;;;;;1.63;100.00;102345.44;5246663;28;20036;-73
2022/01/20 03:24:00;;;;;;;23.88;3.72;;;;;;;1.62;100.00;102341.03;5245658;28;20504;-73
2022/01/20 03:26:31;;;;;;;24.38;3.63;;;;;;;1.56;100.00;102328.84;5250024;28;20515;-73
2022/01/20 03:29:04;;;;;;;22.17;3.47;;;;;;;1.52;100.00;102342.09;5249246;28;20479;-73
2022/01/20 03:31:36;;;;;;;27.70;3.70;;;;;;;1.50;100.00;102335.97;5244316;28;20033;-73
2022/01/20 03:34:07;;;;;;;22.67;3.60;;;;;;;1.43;100.00;102340.44;5248474;28;20044;-73
2022/01/20 03:36:39;;;;;;;16.10;3.17;;;;;;;1.45;100.00;102345.69;5251348;28;20040;-73
2022/01/20 03:39:10;;;;;;;24.02;3.40;;;;;;;1.40;100.00;102337.88;5248354;28;20033;-73
2022/01/20 03:41:41;;;;;;;23.23;3.75;;;;;;;1.34;100.00;102333.56;5249186;28;20488;-73
2022/01/20 03:44:13;;;;;;;14.07;3.42;;;;;;;1.35;100.00;102331.78;5239595;28;20033;-73
2022/01/20 03:46:44;;;;;;;25.30;3.35;;;;;;;1.42;100.00;102340.44;5241145;28;20029;-73
2022/01/20 03:49:37;;;;;;;21.58;3.45;;;;;;;1.52;100.00;102337.69;5234289;28;20015;-73
2022/01/20 03:52:08;;;;;;;23.35;3.13;;;;;;;1.52;100.00;102339.44;5246231;28;20060;-73
2022/01/20 03:54:39;;;;;;;30.90;3.47;;;;;;;1.49;100.00;102331.59;5247523;28;20207;-73
2022/01/20 03:57:11;;;;;;;22.98;3.53;;;;;;;1.49;100.00;102332.44;5247904;28;20513;-72
2022/01/20 03:59:42;;;;;;;21.90;2.67;;;;;;;1.47;100.00;102333.38;5241964;28;20371;-73
2022/01/20 04:02:13;;;;;;;24.52;3.38;;;;;;;1.45;100.00;102322.00;5247572;28;20041;-73
2022/01/20 04:04:45;;;;;;;17.15;2.97;;;;;;;1.40;100.00;102334.34;5249613;28;20032;-73
2022/01/20 04:07:16;;;;;;;19.77;3.25;;;;;;;1.32;100.00;102339.72;5242115;28;20037;-73
2022/01/20 04:09:47;;;;;;;23.58;3.45;;;;;;;1.30;100.00;102339.72;5250344;28;20025;-72
2022/01/20 04:12:19;;;;;;;19.90;3.15;;;;;;;1.25;100.00;102343.34;5248881;28;20048;-73
2022/01/20 04:14:50;;;;;;;23.40;3.33;;;;;;;1.33;100.00;102352.84;5245248;28;20365;-73
2022/01/20 04:17:21;;;;;;;21.63;3.15;;;;;;;1.42;100.00;102349.22;5250776;28;20462;-73
2022/01/20 04:19:53;;;;;;;21.55;3.15;;;;;;;1.44;100.00;102349.19;5245625;28;20033;-73
2022/01/20 04:22:26;;;;;;;23.83;3.65;;;;;;;1.50;100.00;102355.25;5246065;28;20095;-73
2022/01/20 04:24:58;;;;;;;22.27;3.40;;;;;;;1.55;100.00;102352.53;5246036;28;20106;-73
2022/01/20 04:27:29;;;;;;;23.85;4.60;;;;;;;1.62;100.00;102364.72;5248070;28;20029;-73
2022/01/20 04:30:00;;;;;;;28.27;3.88;;;;;;;1.65;100.00;102363.78;5276023;28;21272;-73
2022/01/20 04:32:31;;;;;;;19.38;3.60;;;;;;;1.73;100.00;102361.94;5247245;28;20048;-73
2022/01/20 04:35:03;;;;;;;26.63;4.40;;;;;;;1.79;100.00;102366.25;5245666;28;20078;-73
2022/01/20 04:37:34;;;;;;;25.92;3.03;;;;;;;1.81;100.00;102375.84;5244899;28;20037;-73
2022/01/20 04:40:06;;;;;;;21.08;3.03;;;;;;;1.86;100.00;102402.97;5250099;28;20094;-73
2022/01/20 04:42:39;;;;;;;21.65;3.90;;;;;;;1.84;100.00;102401.22;5249118;28;20061;-73
2022/01/20 04:45:14;;;;;;;26.13;4.50;;;;;;;1.84;100.00;102372.28;5248446;28;20057;-73
2022/01/20 04:47:54;;;;;;;25.20;5.47;;;;;;;1.85;100.00;102368.78;5248091;28;20463;-73
2022/01/20 04:58:55;;;;;;;31.05;3.92;;;;;;;1.89;100.00;102386.25;5245027;28;20044;-73
2022/01/20 05:01:26;;;;;;;20.02;3.53;;;;;;;1.88;100.00;102398.53;5246065;28;20443;-74
2022/01/20 05:04:00;;;;;;;22.60;3.30;;;;;;;1.93;100.00;102401.09;5250899;28;20035;-74
2022/01/20 05:06:31;;;;;;;21.05;3.50;;;;;;;1.93;100.00;102414.25;5246317;28;20459;-73
2022/01/20 05:09:03;;;;;;;16.98;3.60;;;;;;;1.94;100.00;102418.63;5236524;28;20025;-74
2022/01/20 05:11:36;;;;;;;17.80;3.45;;;;;;;1.94;100.00;102410.75;5246547;28;20497;-73
2022/01/20 05:14:07;;;;;;;25.45;3.50;;;;;;;1.99;100.00;102419.41;5245866;28;20539;-73
2022/01/20 05:16:39;;;;;;;29.20;3.75;;;;;;;1.99;100.00;102414.16;5247373;28;20028;-73
2022/01/20 05:19:10;;;;;;;24.27;3.20;;;;;;;2.00;100.00;102408.00;5245285;28;20090;-74
2022/01/20 05:21:41;;;;;;;20.33;4.32;;;;;;;1.99;100.00;102410.66;5247119;28;20025;-73
2022/01/20 05:24:12;;;;;;;24.45;3.58;;;;;;;2.06;100.00;102426.34;5247770;28;20091;-73
2022/01/20 05:26:44;;;;;;;31.40;3.60;;;;;;;2.09;100.00;102428.94;5249552;28;20035;-73
2022/01/20 05:29:19;;;;;;;20.95;3.05;;;;;;;2.11;100.00;102435.03;5253561;28;20096;-73
2022/01/20 05:31:52;;;;;;;23.27;3.25;;;;;;;2.15;100.00;102444.63;5252525;28;20032;-74
2022/01/20 05:34:23;;;;;;;25.52;4.45;;;;;;;2.12;100.00;102423.59;5255904;28;20036;-74
2022/01/20 05:36:54;;;;;;;23.00;3.63;;;;;;;2.19;100.00;102434.94;5254854;28;20029;-73
2022/01/20 05:39:26;;;;;;;24.30;3.30;;;;;;;2.22;100.00;102447.16;5255873;28;20067;-73
2022/01/20 05:41:57;;;;;;;21.08;3.42;;;;;;;2.24;100.00;102467.31;5255267;28;20029;-73
2022/01/20 05:44:28;;;;;;;21.15;2.72;;;;;;;2.24;100.00;102459.41;5254127;28;20029;-73
2022/01/20 05:47:05;;;;;;;17.65;2.58;;;;;;;2.22;100.00;102460.31;5256648;28;20040;-73
2022/01/20 05:49:37;;;;;;;16.23;2.40;;;;;;;2.17;100.00;102465.69;5254441;28;20378;-73
2022/01/20 05:52:08;;;;;;;14.55;2.17;;;;;;;2.11;100.00;102464.00;5250185;28;20395;-73
2022/01/20 05:54:39;;;;;;;17.17;3.22;;;;;;;2.09;100.00;102476.31;5253721;28;20036;-73
2022/01/20 05:57:11;;;;;;;12.88;2.83;;;;;;;2.06;100.00;102481.63;5252535;28;20061;-73
2022/01/20 05:59:42;;;;;;;16.98;2.15;;;;;;;2.07;100.00;102493.00;5252773;28;20033;-73
2022/01/20 06:02:14;;;;;;;11.85;2.45;;;;;;;2.06;100.00;102492.16;5249393;28;20040;-73
2022/01/20 06:04:45;;;;;;;21.52;3.03;;;;;;;2.06;100.00;102491.28;5251789;28;20040;-73
2022/01/20 06:07:19;;;;;;;16.88;2.30;;;;;;;2.05;100.00;102493.06;5248529;28;20033;-74
2022/01/20 06:09:51;;;;;;;13.80;2.63;;;;;;;2.07;100.00;102495.66;5253688;28;20029;-73
2022/01/20 06:12:22;;;;;;;14.20;2.85;;;;;;;2.06;100.00;102496.56;5254385;28;20483;-73
2022/01/20 06:14:53;;;;;;;14.68;3.10;;;;;;;2.04;100.00;102499.22;5253614;28;20067;-74
2022/01/20 06:17:28;;;;;;;17.02;3.20;;;;;;;2.04;100.00;102507.09;5254146;28;20063;-74
2022/01/20 06:19:59;;;;;;;;;;;;;;;1.99;100.00;102503.66;5251138;28;20029;-74
2022/01/20 06:22:30;;;;;;;19.85;3.03;;;;;;;1.98;100.00;102508.97;5254405;28;19959;-74
2022/01/20 06:25:03;;;;;;;21.65;2.80;;;;;;;2.00;100.00;102505.41;5252291;28;20029;-74
2022/01/20 06:27:35;;;;;;;25.40;4.10;;;;;;;1.95;100.00;102515.97;5253163;28;20029;-73
2022/01/20 06:30:07;;;;;;;18.88;3.20;;;;;;;1.96;100.00;102525.63;5247951;28;20402;-74
2022/01/20 06:32:39;;;;;;;23.60;3.20;;;;;;;1.95;100.00;102531.78;5250224;28;20528;-74
2022/01/20 06:35:10;;;;;;;20.80;3.42;;;;;;;1.93;100.00;102530.06;5251074;28;20044;-73
2022/01/20 06:37:42;;;;;;;22.95;3.55;;;;;;;1.91;100.00;102531.84;5253113;28;20041;-73
2022/01/20 06:40:14;;;;;;;18.13;3.17;;;;;;;1.91;100.00;102535.34;5252872;28;20029;-73
2022/01/20 06:42:45;;;;;;;24.40;3.40;;;;;;;1.89;100.00;102531.88;5251011;28;20399;-73
2022/01/20 06:45:18;;;;;;;18.92;3.17;;;;;;;1.88;100.00;102534.50;5251125;28;20032;-73
2022/01/20 06:47:50;;;;;;;18.38;3.03;;;;;;;1.86;100.00;102541.56;5254738;28;20031;-73
2022/01/20 06:50:23;;;;;;;18.52;2.80;;;;;;;1.84;100.00;102540.72;5250009;28;20426;-73
2022/01/20 06:52:54;;;;;;;16.17;2.83;;;;;;;1.80;100.00;102539.00;5250082;28;20479;-73
2022/01/20 06:55:26;;;;;;;26.58;3.83;;;;;;;1.81;100.00;102552.16;5250589;28;20108;-73
2022/01/20 06:57:57;;;;;;;25.70;3.42;;;;;;;1.82;100.00;102558.28;5254175;28;20032;-73
2022/01/20 07:00:28;;;;;;;20.77;3.50;;;;;;;1.76;100.00;102562.75;5250050;28;20150;-73
2022/01/20 07:03:00;;;;;;;18.00;3.10;;;;;;;1.77;100.00;102563.63;5250646;28;20044;-73
2022/01/20 07:05:31;;;;;;;24.88;3.47;;;;;;;1.72;100.00;102576.81;5252991;28;20356;-73
2022/01/20 07:08:02;;;;;;;19.38;3.13;;;;;;;1.68;100.00;102577.72;5255510;28;20043;-73
2022/01/20 07:10:34;;;;;;;25.20;3.50;;;;;;;1.63;100.00;102574.31;5252271;28;20053;-72
2022/01/20 07:13:05;;;;;;;22.58;3.35;;;;;;;1.62;100.00;102574.31;5253585;28;20410;-73
2022/01/20 07:15:36;;;;;;;18.52;3.15;;;;;;;1.61;100.00;102586.59;5243858;28;20048;-73
2022/01/20 07:18:07;;;;;;;21.60;3.55;;;;;;;1.61;100.00;102585.72;5247378;28;20445;-73
2022/01/20 07:20:39;;;;;;;21.63;3.70;;;;;;;1.59;100.00;102583.09;5248859;28;20120;-73
2022/01/20 07:23:10;;;;;;;31.70;4.40;;;;;;;1.51;100.00;102577.91;5251362;28;20090;-73
2022/01/20 07:25:41;;;;;;;27.63;3.75;;;;;;;1.59;100.00;102591.00;5252262;28;20037;-73
2022/01/20 07:28:13;;;;;;;31.10;4.15;;;;;;;1.52;100.00;102605.97;5250471;28;20475;-72
2022/01/20 07:30:44;;;;;;;33.88;4.75;;;;;;;1.54;100.00;102608.59;5247986;28;20037;-72
2022/01/20 07:33:15;;;;;;;30.13;4.20;;;;;;;1.52;100.00;102607.75;5245913;28;20584;-73
2022/01/20 07:35:47;;;;;;;26.15;5.18;;;;;;;1.52;100.00;102610.38;5249901;28;20471;-72
2022/01/20 07:38:18;;;;;;;25.35;5.07;;;;;;;1.52;100.00;102613.88;5250396;28;20119;-73
2022/01/20 07:40:49;;;;;;;24.05;3.75;;;;;;;1.52;100.00;102618.28;5251350;28;20025;-73
2022/01/20 07:43:20;;;;;;;26.85;4.35;;;;;;;1.56;100.00;102612.94;5249168;28;20029;-73
2022/01/20 07:45:52;;;;;;;26.15;5.05;;;;;;;1.55;100.00;102618.22;5248704;28;20029;-72
2022/01/20 07:48:23;;;;;;;26.10;4.30;;;;;;;1.52;100.00;102623.53;5250692;28;20131;-73
2022/01/20 07:50:55;;;;;;;17.33;3.05;;;;;;;1.54;100.00;102624.38;5251845;28;20137;-73
2022/01/20 07:53:26;;;;;;;25.45;4.28;;;;;;;1.64;100.00;102627.78;5252366;28;20501;-72
2022/01/20 07:55:57;;;;;;;23.85;4.13;;;;;;;1.62;100.00;102634.81;5248425;28;20032;-73
2022/01/20 07:58:29;;;;;;;27.55;3.95;;;;;;;1.55;100.00;102631.38;5248794;28;20040;-73
2022/01/20 08:01:00;;;;;;;29.63;4.07;;;;;;;1.55;100.00;102645.41;5250894;28;20040;-72
2022/01/20 08:03:32;;;;;;;22.38;3.67;;;;;;;1.64;100.00;102640.94;5248931;28;20854;-73
2022/01/20 08:06:04;;;;;;;24.98;3.55;;;;;;;1.64;100.00;102636.53;5244947;28;20098;-73
2022/01/20 08:08:35;;;;;;;22.42;3.78;;;;;;;1.62;100.00;102632.19;5249493;28;20640;-72
2022/01/20 08:11:06;;;;;;;21.80;3.40;;;;;;;1.69;100.00;102644.41;5247911;28;20057;-72
2022/01/20 08:13:38;;;;;;;25.52;4.57;;;;;;;1.63;100.00;102661.13;5241463;28;20065;-72
2022/01/20 08:16:09;;;;;;;27.75;4.55;;;;;;;1.65;100.00;102661.09;5243711;28;20490;-72
2022/01/20 08:18:40;;;;;;;30.33;4.40;;;;;;;1.66;100.00;102660.22;5239719;28;20494;-73
2022/01/20 08:21:12;;;;;;;22.08;3.35;;;;;;;1.70;100.00;102665.41;5248321;28;20055;-72
2022/01/20 08:23:43;;;;;;;18.58;3.58;;;;;;;1.70;100.00;102675.94;5242481;28;20076;-72
2022/01/20 08:26:15;;;;;;;27.42;4.18;;;;;;;1.69;100.00;102676.84;5244450;28;20059;-72
2022/01/20 08:28:46;;;;;;;26.10;4.20;;;;;;;1.68;100.00;102677.72;5248512;28;20375;-72
2022/01/20 08:31:17;;;;;;;29.13;3.95;;;;;;;1.73;100.00;102681.19;5249047;28;20064;-72
2022/01/20 08:33:49;;;;;;;27.20;3.90;;;;;;;1.75;100.00;102682.03;5248917;28;20029;-72
2022/01/20 08:36:20;;;;;;;25.27;3.90;;;;;;;1.75;100.00;102681.19;5248313;28;20037;-73
2022/01/20 08:38:51;;;;;;;27.13;4.00;;;;;;;1.73;100.00;102677.69;5246647;28;20324;-73
2022/01/20 08:41:22;;;;;;;26.70;4.10;;;;;;;1.72;100.00;102682.06;5250132;28;20440;-72
2022/01/20 08:43:54;;;;;;;22.75;4.00;;;;;;;1.70;100.00;102685.59;5249080;28;20064;-72
2022/01/20 08:46:25;;;;;;;23.15;4.57;;;;;;;1.67;100.00;102689.16;5251770;28;20037;-72
2022/01/20 08:48:56;;;;;;;21.15;4.80;;;;;;;1.64;100.00;102691.78;5248932;28;20021;-72
2022/01/20 08:51:28;;;;;;;22.42;4.68;;;;;;;1.58;100.00;102691.88;5245695;28;20032;-72
2022/01/20 08:53:59;;;;;;;16.70;3.58;;;;;;;1.54;100.00;102692.78;5246417;28;20122;-72
2022/01/20 08:56:34;;;;;;;19.77;2.72;;;;;;;1.54;100.00;102700.66;5253367;28;20487;-72
2022/01/20 08:59:06;;;;;;;20.95;3.45;;;;;;;1.52;100.00;102697.19;5250471;28;20032;-73
2022/01/20 09:01:40;;;;;;;14.45;2.63;;;;;;;1.57;100.00;102698.00;5253317;28;20886;-73
2022/01/20 09:04:12;;;;;;;12.73;2.28;;;;;;;1.58;100.00;102710.28;5256311;28;20136;-72
2022/01/20 09:06:43;;;;;;;14.35;2.90;;;;;;;1.62;100.00;102712.00;5258435;28;20135;-72
2022/01/20 09:09:17;;;;;;;17.27;2.85;;;;;;;1.65;100.00;102716.34;5256124;28;20104;-72
2022/01/20 09:12:14;;;;;;;17.33;2.75;;;;;;;1.68;100.00;102722.44;5255764;28;20406;-72
2022/01/20 09:17:35;;;;;;;15.85;2.80;;;;;;;1.75;100.00;102732.03;5256511;28;20028;-72
2022/01/20 09:20:07;;;;;;;16.70;3.30;;;;;;;1.77;100.00;102746.06;5255606;28;20028;-72
2022/01/20 09:22:38;;;;;;;22.02;2.95;;;;;;;1.80;100.00;102742.50;5255321;28;20171;-72
2022/01/20 09:25:09;;;;;;;15.55;2.45;;;;;;;1.81;100.00;102748.69;5255125;28;20387;-72
2022/01/20 09:27:41;;;;;;;16.55;2.53;;;;;;;1.83;100.00;102744.25;5255287;28;20021;-72
2022/01/20 09:30:18;;;;;;;13.20;2.63;;;;;;;1.86;100.00;102731.06;5248552;28;20108;-71
2022/01/20 09:33:11;;;;;;;19.33;2.92;;;;;;;1.86;100.00;102737.22;5247572;28;20040;-72
2022/01/20 09:35:44;;;;;;;13.27;1.88;;;;;;;1.79;100.00;102732.03;5251059;28;20029;-71
2022/01/20 09:38:15;;;;;;;20.55;2.75;;;;;;;1.73;100.00;102728.56;5247047;28;20036;-71
2022/01/20 09:40:48;;;;;;;14.65;2.70;;;;;;;1.72;100.00;102728.56;5246389;28;20048;-71
2022/01/20 09:43:20;;;;;;;20.15;2.92;;;;;;;1.80;100.00;102726.72;5246189;28;20136;-73
2022/01/20 09:45:54;;;;;;;13.07;2.83;;;;;;;1.94;100.00;102724.84;5246787;28;20036;-72
2022/01/20 09:48:28;;;;;;;14.93;2.80;;;;;;;2.10;100.00;102733.44;5244960;28;20031;-71
2022/01/20 09:51:00;;;;;;;15.83;2.67;;;;;;;2.17;100.00;102729.00;5244446;28;20528;-72
2022/01/20 09:53:31;;;;;;;12.35;2.67;;;;;;;2.19;100.00;102728.97;5249003;28;20295;-71
2022/01/20 09:56:03;;;;;;;15.70;2.97;;;;;;;2.21;100.00;102741.25;5255950;28;20541;-71
2022/01/20 09:58:34;;;;;;;13.43;2.75;;;;;;;2.24;100.00;102748.22;5253672;28;20459;-71
2022/01/20 10:01:05;;;;;;;23.20;3.15;;;;;;;2.21;100.00;102770.22;5248767;28;20133;-71
2022/01/20 10:03:38;;;;;;;23.60;3.00;;;;;;;2.12;100.00;102771.16;5245322;28;20040;-72
2022/01/20 10:06:10;;;;;;;20.10;3.85;;;;;;;2.04;100.00;102778.28;5243524;28;20044;-72
2022/01/20 10:08:41;;;;;;;18.25;3.28;;;;;;;2.01;100.00;102785.31;5244153;28;20069;-71
2022/01/20 10:11:13;;;;;;;22.95;3.63;;;;;;;1.96;100.00;102783.59;5244849;28;20045;-71
2022/01/20 10:13:44;;;;;;;27.67;4.78;;;;;;;1.95;100.00;102784.47;5247741;28;20036;-71
2022/01/20 10:16:17;;;;;;;17.52;3.25;;;;;;;2.02;100.00;102782.69;5246432;28;20098;-71
2022/01/20 10:18:50;;;;;;;9.50;2.40;;;;;;;2.03;100.00;102791.44;5245798;28;20025;-71
2022/01/20 10:21:30;;;;;;;9.30;2.22;;;;;;;1.99;100.00;102787.97;5247562;28;20032;-71
2022/01/20 10:24:07;;;;;;;13.57;1.92;;;;;;;2.11;100.00;102790.50;5248210;28;20040;-71
2022/01/20 10:26:40;;;;;;;13.15;2.03;;;;;;;2.23;100.00;102801.81;5257284;28;20028;-71
2022/01/20 10:29:14;;;;;;;14.30;2.95;;;;;;;2.20;100.00;102807.09;5252134;28;20209;-71
2022/01/20 10:31:49;;;;;;;;;;;;;;;2.17;100.00;102797.47;5247216;28;20399;-71
2022/01/20 10:34:30;;;;;;;15.93;3.35;;;;;;;2.34;100.00;102807.84;5243537;28;20010;-71
2022/01/20 10:37:06;;;;;;;14.52;2.58;;;;;;;2.38;98.78;102821.81;5246709;28;20041;-71
2022/01/20 10:39:39;;;;;;;14.57;3.05;;;;;;;2.41;99.54;102812.13;5244364;28;20116;-71
2022/01/20 10:42:16;;;;;;;18.02;2.33;;;;;;;2.53;95.87;102822.56;5247097;28;20063;-71
2022/01/20 10:44:49;;;;;;;17.38;2.55;;;;;;;2.64;100.00;102819.78;5245734;28;20040;-71
2022/01/20 10:47:26;;;;;;;16.00;2.60;;;;;;;2.98;94.27;102815.88;5244835;28;20112;-71
2022/01/20 10:50:12;;;;;;;17.58;2.60;;;;;;;3.07;91.08;102819.25;5249097;28;20426;-71
2022/01/20 10:52:44;;;;;;;17.25;2.70;;;;;;;3.16;94.03;102812.09;5249074;28;20139;-71
2022/01/20 10:55:21;;;;;;;12.90;2.15;;;;;;;3.17;93.07;102825.28;5249638;28;20028;-71
2022/01/20 10:57:54;;;;;;;13.90;2.90;;;;;;;3.20;89.66;102811.16;5256893;28;20111;-71
2022/01/20 11:00:26;;;;;;;15.10;2.40;;;;;;;3.21;89.92;102810.28;5249892;28;20398;-71
2022/01/20 11:02:58;;;;;;;11.43;2.88;;;;;;;3.26;86.96;102811.97;5245159;28;20037;-71
2022/01/20 11:05:30;;;;;;;13.15;2.63;;;;;;;3.25;87.40;102814.63;5246443;28;20826;-71
2022/01/20 11:08:01;;;;;;;12.50;2.25;;;;;;;3.23;88.81;102811.13;5244054;28;20130;-71
2022/01/20 11:10:33;;;;;;;15.88;2.25;;;;;;;3.22;90.34;102814.66;5245616;28;20057;-71
2022/01/20 11:13:05;;;;;;;18.67;2.80;;;;;;;3.22;89.80;102812.91;5246525;28;20028;-71
2022/01/20 11:15:36;;;;;;;12.80;2.42;;;;;;;3.24;86.26;102816.41;5243725;28;20044;-71
2022/01/20 11:18:09;;;;;;;13.15;2.53;;;;;;;3.20;88.98;102819.09;5245224;28;20029;-71
2022/01/20 11:20:42;;;;;;;16.85;2.97;;;;;;;3.13;89.75;102816.53;5245298;28;20032;-72
2022/01/20 11:23:14;;;;;;;16.05;2.38;;;;;;;3.04;90.40;102813.16;5245550;28;20261;-71
2022/01/20 11:25:46;;;;;;;14.70;2.10;;;;;;;3.05;86.36;102820.16;5249494;28;20145;-71
2022/01/20 11:28:23;;;;;;;15.98;2.33;;;;;;;3.06;90.38;102820.13;5249510;28;20029;-71
2022/01/20 11:30:54;;;;;;;13.23;2.17;;;;;;;3.27;87.71;102813.69;5247534;28;20502;-71
2022/01/20 11:33:34;;;;;;;16.95;2.20;;;;;;;3.40;90.98;102809.13;5246634;28;20033;-71
2022/01/20 11:36:20;;;;;;;16.45;2.50;;;;;;;3.47;86.71;102808.16;5246828;28;20079;-70
2022/01/20 11:38:59;;;;;;;13.90;2.45;;;;;;;3.50;86.88;102807.22;5246232;28;20033;-70
2022/01/20 11:41:37;;;;;;;17.77;2.88;;;;;;;3.57;84.92;102810.63;5244725;28;20029;-70
2022/01/20 11:44:15;;;;;;;19.30;2.90;;;;;;;3.57;85.15;102806.25;5244645;28;20045;-70
2022/01/20 11:46:49;;;;;;;15.43;2.40;;;;;;;3.56;89.02;102812.41;5246632;28;20164;-70
2022/01/20 11:49:21;;;;;;;14.95;2.97;;;;;;;3.58;82.55;102799.19;5248249;28;20051;-71
2022/01/20 11:51:58;;;;;;;12.23;2.65;;;;;;;3.54;83.22;102803.63;5245939;28;20102;-71
2022/01/20 11:54:42;;;;;;;12.93;2.53;;;;;;;3.52;82.39;102802.78;5247851;28;20386;-73
2022/01/20 11:57:30;;;;;;;11.75;2.28;;;;;;;3.45;85.20;102802.03;5250209;28;20844;-67
2022/01/20 12:00:17;;;;;;;15.75;3.13;;;;;;;3.46;86.18;102803.75;5252544;28;20489;-71
2022/01/20 12:02:49;;;;;;;14.45;3.00;;;;;;;3.45;85.00;102807.31;5245111;28;20098;-70
2022/01/20 12:05:29;;;;;;;15.30;2.40;;;;;;;3.39;83.58;102817.06;5247128;28;20466;-70
2022/01/20 12:08:10;;;;;;;17.98;2.92;;;;;;;3.26;87.40;102813.72;5244731;28;20028;-71
2022/01/20 12:10:43;;;;;;;19.73;2.78;;;;;;;3.14;89.78;102804.22;5243128;28;22120;-72
2022/01/20 12:13:18;;;;;;;16.92;3.13;;;;;;;3.09;86.42;102793.75;5243399;28;20483;-69
2022/01/20 12:15:51;;;;;;;13.38;2.70;;;;;;;3.05;86.80;102784.13;5246315;28;20086;-69
2022/01/20 12:18:23;;;;;;;17.02;2.67;;;;;;;3.10;89.38;102784.06;5243299;28;20356;-71
2022/01/20 12:20:54;;;;;;;13.77;3.38;;;;;;;3.26;90.64;102771.50;5244971;28;20082;-70
2022/01/20 12:23:27;;;;;;;11.95;2.20;;;;;;;3.45;87.80;102780.91;5249303;28;20059;-70
2022/01/20 12:26:05;;;;;;;16.17;2.78;;;;;;;3.52;90.53;102784.31;5254646;28;20025;-70
2022/01/20 12:28:36;;;;;;;10.35;2.35;;;;;;;3.58;87.22;102780.72;5255018;28;20024;-71
2022/01/20 12:31:14;;;;;;;16.50;2.05;;;;;;;3.60;85.30;102776.28;5256103;28;20372;-71
2022/01/20 12:33:46;;;;;;;11.88;2.20;;;;;;;3.60;87.62;102779.78;5254729;28;20029;-71
2022/01/20 12:36:18;;;;;;;15.52;2.50;;;;;;;3.58;82.68;102792.13;5254682;28;20053;-70
2022/01/20 12:38:51;;;;;;;12.88;2.53;;;;;;;3.56;83.84;102796.56;5254633;28;20547;-71
2022/01/20 12:41:24;;;;;;;12.20;2.25;;;;;;;3.54;85.44;102806.28;5247169;28;20025;-71
2022/01/20 12:44:04;;;;;;;14.85;2.45;;;;;;;3.53;83.37;102791.34;5242588;28;20031;-70
2022/01/20 12:46:38;;;;;;;11.95;2.00;;;;;;;3.48;84.09;102790.53;5287454;28;20032;-70